sensor_id;sensor_type;location;lat;lon;timestamp;temperature;humidity
14670;DHT22;7423;48.722;9.350;2024-01-06T00:02:15;10.50;99.90
14670;DHT22;7423;48.722;9.350;2024-01-06T00:04:42;10.50;99.90
14670;DHT22;7423;48.722;9.350;2024-01-06T00:07:09;10.40;99.90
14670;DHT22;7423;48.722;9.350;2024-01-06T00:09:36;10.40;99.90
14670;DHT22;7423;48.722;9.350;2024-01-06T00:12:03;10.50;99.90
14670;DHT22;7423;48.722;9.350;2024-01-06T00:14:31;10.50;99.90
14670;DHT22;7423;48.722;9.350;2024-01-06T00:16:57;10.50;99.90
14670;DHT22;7423;48.722;9.350;2024-01-06T00:19:24;10.50;99.90
14670;DHT22;7423;48.722;9.350;2024-01-06T00:21:51;10.50;99.90
14670;DHT22;7423;48.722;9.350;2024-01-06T00:24:18;10.50;99.90
14670;DHT22;7423;48.722;9.350;2024-01-06T00:26:45;10.50;99.90
14670;DHT22;7423;48.722;9.350;2024-01-06T00:29:12;10.50;99.90
14670;DHT22;7423;48.722;9.350;2024-01-06T00:31:39;10.50;99.90
14670;DHT22;7423;48.722;9.350;2024-01-06T00:34:06;10.50;99.90
14670;DHT22;7423;48.722;9.350;2024-01-06T00:36:33;10.40;99.90
14670;DHT22;7423;48.722;9.350;2024-01-06T00:39:00;10.40;99.90
14670;DHT22;7423;48.722;9.350;2024-01-06T00:41:27;10.40;99.90
14670;DHT22;7423;48.722;9.350;2024-01-06T00:43:53;10.30;99.90
14670;DHT22;7423;48.722;9.350;2024-01-06T00:46:20;10.30;99.90
14670;DHT22;7423;48.722;9.350;2024-01-06T00:48:47;10.30;99.90
14670;DHT22;7423;48.722;9.350;2024-01-06T00:51:14;10.30;99.90
14670;DHT22;7423;48.722;9.350;2024-01-06T00:53:42;10.20;99.90
14670;DHT22;7423;48.722;9.350;2024-01-06T00:56:09;10.30;99.90
14670;DHT22;7423;48.722;9.350;2024-01-06T00:58:36;10.30;99.90
14670;DHT22;7423;48.722;9.350;2024-01-06T01:01:02;10.30;99.90
14670;DHT22;7423;48.722;9.350;2024-01-06T01:03:30;10.20;99.90
14670;DHT22;7423;48.722;9.350;2024-01-06T01:05:57;10.20;99.90
14670;DHT22;7423;48.722;9.350;2024-01-06T01:08:24;10.30;99.90
14670;DHT22;7423;48.722;9.350;2024-01-06T01:10:51;11.90;99.90
14670;DHT22;7423;48.722;9.350;2024-01-06T01:13:18;10.30;99.90
14670;DHT22;7423;48.722;9.350;2024-01-06T01:15:44;10.20;99.90
14670;DHT22;7423;48.722;9.350;2024-01-06T01:18:12;10.20;99.90
14670;DHT22;7423;48.722;9.350;2024-01-06T01:20:39;10.20;99.90
14670;DHT22;7423;48.722;9.350;2024-01-06T01:23:08;10.10;99.90
14670;DHT22;7423;48.722;9.350;2024-01-06T01:25:35;10.10;99.90
14670;DHT22;7423;48.722;9.350;2024-01-06T01:28:02;10.20;99.90
14670;DHT22;7423;48.722;9.350;2024-01-06T01:30:29;10.10;99.90
14670;DHT22;7423;48.722;9.350;2024-01-06T01:32:56;10.10;99.90
14670;DHT22;7423;48.722;9.350;2024-01-06T01:35:23;10.10;99.90
14670;DHT22;7423;48.722;9.350;2024-01-06T01:37:49;10.10;99.90
14670;DHT22;7423;48.722;9.350;2024-01-06T01:40:16;10.00;99.90
14670;DHT22;7423;48.722;9.350;2024-01-06T01:42:43;10.00;99.90
14670;DHT22;7423;48.722;9.350;2024-01-06T01:45:10;10.00;99.90
14670;DHT22;7423;48.722;9.350;2024-01-06T01:47:39;10.00;99.90
14670;DHT22;7423;48.722;9.350;2024-01-06T01:50:07;10.00;99.90
14670;DHT22;7423;48.722;9.350;2024-01-06T01:52:35;10.00;99.90
14670;DHT22;7423;48.722;9.350;2024-01-06T01:55:03;10.00;99.90
14670;DHT22;7423;48.722;9.350;2024-01-06T01:57:30;10.00;99.90
14670;DHT22;7423;48.722;9.350;2024-01-06T01:59:58;10.00;99.90
14670;DHT22;7423;48.722;9.350;2024-01-06T02:02:27;9.90;99.90
14670;DHT22;7423;48.722;9.350;2024-01-06T02:04:56;9.90;99.90
14670;DHT22;7423;48.722;9.350;2024-01-06T02:07:23;9.90;99.90
14670;DHT22;7423;48.722;9.350;2024-01-06T02:09:51;9.90;99.90
14670;DHT22;7423;48.722;9.350;2024-01-06T02:12:17;9.90;99.90
14670;DHT22;7423;48.722;9.350;2024-01-06T02:14:44;9.80;99.90
14670;DHT22;7423;48.722;9.350;2024-01-06T02:17:11;12.00;99.90
14670;DHT22;7423;48.722;9.350;2024-01-06T02:19:38;9.90;99.90
14670;DHT22;7423;48.722;9.350;2024-01-06T02:22:05;9.80;99.90
14670;DHT22;7423;48.722;9.350;2024-01-06T02:24:32;9.80;99.90
14670;DHT22;7423;48.722;9.350;2024-01-06T02:26:59;9.80;99.90
14670;DHT22;7423;48.722;9.350;2024-01-06T02:29:26;9.80;99.90
14670;DHT22;7423;48.722;9.350;2024-01-06T02:31:53;9.70;99.90
14670;DHT22;7423;48.722;9.350;2024-01-06T02:34:20;9.70;99.90
14670;DHT22;7423;48.722;9.350;2024-01-06T02:36:47;9.70;99.90
14670;DHT22;7423;48.722;9.350;2024-01-06T02:39:14;9.80;99.90
14670;DHT22;7423;48.722;9.350;2024-01-06T02:41:41;9.70;99.90
14670;DHT22;7423;48.722;9.350;2024-01-06T02:44:08;9.70;99.90
14670;DHT22;7423;48.722;9.350;2024-01-06T02:46:39;9.70;99.90
14670;DHT22;7423;48.722;9.350;2024-01-06T02:49:07;9.70;99.90
14670;DHT22;7423;48.722;9.350;2024-01-06T02:51:34;9.70;99.90
14670;DHT22;7423;48.722;9.350;2024-01-06T02:54:01;9.70;99.90
14670;DHT22;7423;48.722;9.350;2024-01-06T02:56:28;9.70;99.90
14670;DHT22;7423;48.722;9.350;2024-01-06T02:58:55;9.70;99.90
14670;DHT22;7423;48.722;9.350;2024-01-06T03:01:22;9.70;99.90
14670;DHT22;7423;48.722;9.350;2024-01-06T03:03:49;9.70;99.90
14670;DHT22;7423;48.722;9.350;2024-01-06T03:06:16;9.70;99.90
14670;DHT22;7423;48.722;9.350;2024-01-06T03:08:43;9.70;99.90
14670;DHT22;7423;48.722;9.350;2024-01-06T03:11:10;9.70;99.90
14670;DHT22;7423;48.722;9.350;2024-01-06T03:13:37;9.60;99.90
14670;DHT22;7423;48.722;9.350;2024-01-06T03:16:04;9.70;99.90
14670;DHT22;7423;48.722;9.350;2024-01-06T03:18:31;9.70;99.90
14670;DHT22;7423;48.722;9.350;2024-01-06T03:20:59;9.70;99.90
14670;DHT22;7423;48.722;9.350;2024-01-06T03:23:26;9.60;99.90
14670;DHT22;7423;48.722;9.350;2024-01-06T03:25:52;9.60;99.90
14670;DHT22;7423;48.722;9.350;2024-01-06T03:28:19;9.60;99.90
14670;DHT22;7423;48.722;9.350;2024-01-06T03:30:46;9.60;99.90
14670;DHT22;7423;48.722;9.350;2024-01-06T03:33:13;9.60;99.90
14670;DHT22;7423;48.722;9.350;2024-01-06T03:35:41;9.60;99.90
14670;DHT22;7423;48.722;9.350;2024-01-06T03:38:07;9.60;99.90
14670;DHT22;7423;48.722;9.350;2024-01-06T03:40:34;9.60;99.90
14670;DHT22;7423;48.722;9.350;2024-01-06T03:43:01;9.60;99.90
14670;DHT22;7423;48.722;9.350;2024-01-06T03:45:28;9.60;99.90
14670;DHT22;7423;48.722;9.350;2024-01-06T03:47:55;9.60;99.90
14670;DHT22;7423;48.722;9.350;2024-01-06T03:50:22;9.60;99.90
14670;DHT22;7423;48.722;9.350;2024-01-06T03:52:49;9.60;99.90
14670;DHT22;7423;48.722;9.350;2024-01-06T03:55:16;9.60;99.90
14670;DHT22;7423;48.722;9.350;2024-01-06T03:57:43;9.50;99.90
14670;DHT22;7423;48.722;9.350;2024-01-06T04:00:10;9.50;99.90
14670;DHT22;7423;48.722;9.350;2024-01-06T04:02:37;9.40;99.90
14670;DHT22;7423;48.722;9.350;2024-01-06T04:05:04;9.40;99.90
14670;DHT22;7423;48.722;9.350;2024-01-06T04:07:31;9.40;99.90
14670;DHT22;7423;48.722;9.350;2024-01-06T04:09:58;9.50;99.90
14670;DHT22;7423;48.722;9.350;2024-01-06T04:12:25;9.50;99.90
14670;DHT22;7423;48.722;9.350;2024-01-06T04:14:52;9.50;99.90
14670;DHT22;7423;48.722;9.350;2024-01-06T04:17:19;9.40;99.90
14670;DHT22;7423;48.722;9.350;2024-01-06T04:19:46;9.40;99.90
14670;DHT22;7423;48.722;9.350;2024-01-06T04:22:13;9.40;99.90
14670;DHT22;7423;48.722;9.350;2024-01-06T04:24:40;9.40;99.90
14670;DHT22;7423;48.722;9.350;2024-01-06T04:27:07;9.40;99.90
14670;DHT22;7423;48.722;9.350;2024-01-06T04:29:34;9.40;99.90
14670;DHT22;7423;48.722;9.350;2024-01-06T04:32:02;9.40;99.90
14670;DHT22;7423;48.722;9.350;2024-01-06T04:34:30;9.40;99.90
14670;DHT22;7423;48.722;9.350;2024-01-06T04:36:57;9.40;99.90
14670;DHT22;7423;48.722;9.350;2024-01-06T04:39:24;9.30;99.90
14670;DHT22;7423;48.722;9.350;2024-01-06T04:41:51;9.30;99.90
14670;DHT22;7423;48.722;9.350;2024-01-06T04:44:20;9.30;99.90
14670;DHT22;7423;48.722;9.350;2024-01-06T04:46:47;9.30;99.90
14670;DHT22;7423;48.722;9.350;2024-01-06T04:49:14;9.30;99.90
14670;DHT22;7423;48.722;9.350;2024-01-06T04:51:41;9.30;99.90
14670;DHT22;7423;48.722;9.350;2024-01-06T04:54:08;9.30;99.90
14670;DHT22;7423;48.722;9.350;2024-01-06T04:56:35;9.30;99.90
14670;DHT22;7423;48.722;9.350;2024-01-06T04:59:02;9.30;99.90
14670;DHT22;7423;48.722;9.350;2024-01-06T05:01:29;9.30;99.90
14670;DHT22;7423;48.722;9.350;2024-01-06T05:03:56;9.30;99.90
14670;DHT22;7423;48.722;9.350;2024-01-06T05:06:23;9.30;99.90
14670;DHT22;7423;48.722;9.350;2024-01-06T05:08:50;9.20;99.90
14670;DHT22;7423;48.722;9.350;2024-01-06T05:11:17;9.20;99.90
14670;DHT22;7423;48.722;9.350;2024-01-06T05:13:44;9.20;99.90
14670;DHT22;7423;48.722;9.350;2024-01-06T05:16:11;9.20;99.90
14670;DHT22;7423;48.722;9.350;2024-01-06T05:18:38;9.20;99.90
14670;DHT22;7423;48.722;9.350;2024-01-06T05:21:05;9.20;99.90
14670;DHT22;7423;48.722;9.350;2024-01-06T05:23:32;9.20;99.90
14670;DHT22;7423;48.722;9.350;2024-01-06T05:25:59;9.20;99.90
14670;DHT22;7423;48.722;9.350;2024-01-06T05:28:26;9.20;99.90
14670;DHT22;7423;48.722;9.350;2024-01-06T05:30:53;9.20;99.90
14670;DHT22;7423;48.722;9.350;2024-01-06T05:33:20;9.10;99.90
14670;DHT22;7423;48.722;9.350;2024-01-06T05:35:47;9.10;99.90
14670;DHT22;7423;48.722;9.350;2024-01-06T05:38:14;9.10;99.90
14670;DHT22;7423;48.722;9.350;2024-01-06T05:40:40;9.10;99.90
14670;DHT22;7423;48.722;9.350;2024-01-06T05:43:07;9.10;99.90
14670;DHT22;7423;48.722;9.350;2024-01-06T05:45:34;9.10;99.90
14670;DHT22;7423;48.722;9.350;2024-01-06T05:48:01;9.10;99.90
14670;DHT22;7423;48.722;9.350;2024-01-06T05:50:28;9.10;99.90
14670;DHT22;7423;48.722;9.350;2024-01-06T05:52:55;9.10;99.90
14670;DHT22;7423;48.722;9.350;2024-01-06T05:55:22;9.10;99.90
14670;DHT22;7423;48.722;9.350;2024-01-06T05:57:49;9.10;99.90
14670;DHT22;7423;48.722;9.350;2024-01-06T06:00:16;9.10;99.90
14670;DHT22;7423;48.722;9.350;2024-01-06T06:02:44;9.10;99.90
14670;DHT22;7423;48.722;9.350;2024-01-06T06:05:10;9.10;99.90
14670;DHT22;7423;48.722;9.350;2024-01-06T06:07:37;9.00;99.90
14670;DHT22;7423;48.722;9.350;2024-01-06T06:10:10;9.00;99.90
14670;DHT22;7423;48.722;9.350;2024-01-06T06:12:38;9.10;99.90
14670;DHT22;7423;48.722;9.350;2024-01-06T06:15:06;9.10;99.90
14670;DHT22;7423;48.722;9.350;2024-01-06T06:17:33;9.10;99.90
14670;DHT22;7423;48.722;9.350;2024-01-06T06:20:00;9.10;99.90
14670;DHT22;7423;48.722;9.350;2024-01-06T06:22:27;9.00;99.90
14670;DHT22;7423;48.722;9.350;2024-01-06T06:24:57;9.00;99.90
14670;DHT22;7423;48.722;9.350;2024-01-06T06:27:26;9.00;99.90
14670;DHT22;7423;48.722;9.350;2024-01-06T06:29:54;9.00;99.90
14670;DHT22;7423;48.722;9.350;2024-01-06T06:32:21;9.00;99.90
14670;DHT22;7423;48.722;9.350;2024-01-06T06:34:48;9.30;99.90
14670;DHT22;7423;48.722;9.350;2024-01-06T06:37:15;9.20;99.90
14670;DHT22;7423;48.722;9.350;2024-01-06T06:39:42;9.30;99.90
14670;DHT22;7423;48.722;9.350;2024-01-06T06:42:11;9.40;99.90
14670;DHT22;7423;48.722;9.350;2024-01-06T06:44:38;9.20;99.90
14670;DHT22;7423;48.722;9.350;2024-01-06T06:47:05;9.10;99.90
14670;DHT22;7423;48.722;9.350;2024-01-06T06:49:32;9.10;99.90
14670;DHT22;7423;48.722;9.350;2024-01-06T06:51:59;9.10;99.90
14670;DHT22;7423;48.722;9.350;2024-01-06T06:54:26;9.10;99.90
14670;DHT22;7423;48.722;9.350;2024-01-06T06:56:53;9.10;99.90
14670;DHT22;7423;48.722;9.350;2024-01-06T06:59:20;9.10;99.90
14670;DHT22;7423;48.722;9.350;2024-01-06T07:01:47;9.10;99.90
14670;DHT22;7423;48.722;9.350;2024-01-06T07:04:14;9.10;99.90
14670;DHT22;7423;48.722;9.350;2024-01-06T07:06:41;9.10;99.90
14670;DHT22;7423;48.722;9.350;2024-01-06T07:09:08;9.10;99.90
14670;DHT22;7423;48.722;9.350;2024-01-06T07:11:34;9.10;99.90
14670;DHT22;7423;48.722;9.350;2024-01-06T07:14:01;9.10;99.90
14670;DHT22;7423;48.722;9.350;2024-01-06T07:16:28;9.20;99.90
14670;DHT22;7423;48.722;9.350;2024-01-06T07:18:56;9.20;99.90
14670;DHT22;7423;48.722;9.350;2024-01-06T07:21:23;9.30;99.90
14670;DHT22;7423;48.722;9.350;2024-01-06T07:23:50;9.20;99.90
14670;DHT22;7423;48.722;9.350;2024-01-06T07:26:17;9.20;99.90
14670;DHT22;7423;48.722;9.350;2024-01-06T07:28:44;9.20;99.90
14670;DHT22;7423;48.722;9.350;2024-01-06T07:31:11;9.30;99.90
14670;DHT22;7423;48.722;9.350;2024-01-06T07:33:38;9.20;99.90
14670;DHT22;7423;48.722;9.350;2024-01-06T07:36:06;9.20;99.90
14670;DHT22;7423;48.722;9.350;2024-01-06T07:38:33;10.90;99.90
14670;DHT22;7423;48.722;9.350;2024-01-06T07:41:00;9.20;99.90
14670;DHT22;7423;48.722;9.350;2024-01-06T07:43:27;9.20;99.90
14670;DHT22;7423;48.722;9.350;2024-01-06T07:45:54;9.20;99.90
14670;DHT22;7423;48.722;9.350;2024-01-06T07:48:21;9.30;99.90
14670;DHT22;7423;48.722;9.350;2024-01-06T07:50:48;9.30;99.90
14670;DHT22;7423;48.722;9.350;2024-01-06T07:53:15;9.20;99.90
14670;DHT22;7423;48.722;9.350;2024-01-06T07:55:42;9.20;99.90
14670;DHT22;7423;48.722;9.350;2024-01-06T07:58:09;9.30;99.90
14670;DHT22;7423;48.722;9.350;2024-01-06T08:00:36;9.30;99.90
14670;DHT22;7423;48.722;9.350;2024-01-06T08:03:03;9.30;99.90
14670;DHT22;7423;48.722;9.350;2024-01-06T08:05:32;9.30;99.90
14670;DHT22;7423;48.722;9.350;2024-01-06T08:07:59;9.30;99.90
14670;DHT22;7423;48.722;9.350;2024-01-06T08:10:26;9.30;99.90
14670;DHT22;7423;48.722;9.350;2024-01-06T08:12:53;9.30;99.90
14670;DHT22;7423;48.722;9.350;2024-01-06T08:15:21;9.20;99.90
14670;DHT22;7423;48.722;9.350;2024-01-06T08:17:48;9.20;99.90
14670;DHT22;7423;48.722;9.350;2024-01-06T08:20:15;9.20;99.90
14670;DHT22;7423;48.722;9.350;2024-01-06T08:22:42;9.30;99.90
14670;DHT22;7423;48.722;9.350;2024-01-06T08:25:08;9.30;99.90
14670;DHT22;7423;48.722;9.350;2024-01-06T08:27:35;9.30;99.90
14670;DHT22;7423;48.722;9.350;2024-01-06T08:30:02;9.30;99.90
14670;DHT22;7423;48.722;9.350;2024-01-06T08:32:30;9.30;99.90
14670;DHT22;7423;48.722;9.350;2024-01-06T08:34:56;9.30;99.90
14670;DHT22;7423;48.722;9.350;2024-01-06T08:37:23;9.30;99.90
14670;DHT22;7423;48.722;9.350;2024-01-06T08:39:50;9.30;99.90
14670;DHT22;7423;48.722;9.350;2024-01-06T08:42:17;9.30;99.90
14670;DHT22;7423;48.722;9.350;2024-01-06T08:44:45;9.30;99.90
14670;DHT22;7423;48.722;9.350;2024-01-06T08:47:12;9.40;99.90
14670;DHT22;7423;48.722;9.350;2024-01-06T08:49:39;9.30;99.90
14670;DHT22;7423;48.722;9.350;2024-01-06T08:52:06;9.30;99.90
14670;DHT22;7423;48.722;9.350;2024-01-06T08:54:33;9.30;99.90
14670;DHT22;7423;48.722;9.350;2024-01-06T08:57:00;9.40;99.90
14670;DHT22;7423;48.722;9.350;2024-01-06T08:59:27;9.40;99.90
14670;DHT22;7423;48.722;9.350;2024-01-06T09:01:54;9.40;99.90
14670;DHT22;7423;48.722;9.350;2024-01-06T09:04:22;9.40;99.90
14670;DHT22;7423;48.722;9.350;2024-01-06T09:06:49;9.40;99.90
14670;DHT22;7423;48.722;9.350;2024-01-06T09:09:17;9.40;99.90
14670;DHT22;7423;48.722;9.350;2024-01-06T09:11:44;9.40;99.90
14670;DHT22;7423;48.722;9.350;2024-01-06T09:14:11;9.40;99.90
14670;DHT22;7423;48.722;9.350;2024-01-06T09:16:38;9.50;99.90
14670;DHT22;7423;48.722;9.350;2024-01-06T09:19:05;9.50;99.90
14670;DHT22;7423;48.722;9.350;2024-01-06T09:21:32;9.50;99.90
14670;DHT22;7423;48.722;9.350;2024-01-06T09:23:59;9.50;99.90
14670;DHT22;7423;48.722;9.350;2024-01-06T09:26:27;9.50;99.90
14670;DHT22;7423;48.722;9.350;2024-01-06T09:28:53;9.50;99.90
14670;DHT22;7423;48.722;9.350;2024-01-06T09:31:20;9.60;99.90
14670;DHT22;7423;48.722;9.350;2024-01-06T09:33:47;9.60;99.90
14670;DHT22;7423;48.722;9.350;2024-01-06T09:36:16;9.60;99.90
14670;DHT22;7423;48.722;9.350;2024-01-06T09:38:43;9.60;99.90
14670;DHT22;7423;48.722;9.350;2024-01-06T09:41:10;9.60;99.90
14670;DHT22;7423;48.722;9.350;2024-01-06T09:43:37;9.60;99.90
14670;DHT22;7423;48.722;9.350;2024-01-06T09:46:26;9.60;99.90
14670;DHT22;7423;48.722;9.350;2024-01-06T09:48:54;9.70;99.90
14670;DHT22;7423;48.722;9.350;2024-01-06T09:51:23;9.70;99.90
14670;DHT22;7423;48.722;9.350;2024-01-06T09:56:28;9.70;99.90
14670;DHT22;7423;48.722;9.350;2024-01-06T09:58:56;9.70;99.90
14670;DHT22;7423;48.722;9.350;2024-01-06T10:01:23;9.70;99.90
14670;DHT22;7423;48.722;9.350;2024-01-06T10:03:50;9.70;99.90
14670;DHT22;7423;48.722;9.350;2024-01-06T10:06:18;9.80;99.90
14670;DHT22;7423;48.722;9.350;2024-01-06T10:08:49;9.80;99.90
14670;DHT22;7423;48.722;9.350;2024-01-06T10:11:18;9.80;99.90
14670;DHT22;7423;48.722;9.350;2024-01-06T10:13:45;9.80;99.90
14670;DHT22;7423;48.722;9.350;2024-01-06T10:16:15;9.80;99.90
14670;DHT22;7423;48.722;9.350;2024-01-06T10:18:42;9.90;99.90
14670;DHT22;7423;48.722;9.350;2024-01-06T10:21:11;10.00;99.90
14670;DHT22;7423;48.722;9.350;2024-01-06T10:23:38;10.00;99.90
14670;DHT22;7423;48.722;9.350;2024-01-06T10:26:04;10.00;99.90
14670;DHT22;7423;48.722;9.350;2024-01-06T10:28:31;10.00;99.90
14670;DHT22;7423;48.722;9.350;2024-01-06T10:30:59;9.90;99.90
14670;DHT22;7423;48.722;9.350;2024-01-06T10:33:26;9.80;99.90
14670;DHT22;7423;48.722;9.350;2024-01-06T10:35:54;9.80;99.90
14670;DHT22;7423;48.722;9.350;2024-01-06T10:38:22;9.90;99.90
14670;DHT22;7423;48.722;9.350;2024-01-06T10:41:04;9.90;99.90
14670;DHT22;7423;48.722;9.350;2024-01-06T10:43:36;10.00;99.90
14670;DHT22;7423;48.722;9.350;2024-01-06T10:46:10;10.00;99.90
14670;DHT22;7423;48.722;9.350;2024-01-06T10:48:39;10.00;99.90
14670;DHT22;7423;48.722;9.350;2024-01-06T10:51:11;10.00;99.90
14670;DHT22;7423;48.722;9.350;2024-01-06T10:53:40;9.90;99.90
14670;DHT22;7423;48.722;9.350;2024-01-06T10:56:09;9.90;99.90
14670;DHT22;7423;48.722;9.350;2024-01-06T10:58:46;9.90;99.90
14670;DHT22;7423;48.722;9.350;2024-01-06T11:01:15;9.70;99.90
14670;DHT22;7423;48.722;9.350;2024-01-06T11:03:53;10.90;99.90
14670;DHT22;7423;48.722;9.350;2024-01-06T11:06:21;9.70;99.90
14670;DHT22;7423;48.722;9.350;2024-01-06T11:08:54;9.80;99.90
14670;DHT22;7423;48.722;9.350;2024-01-06T11:11:26;9.90;99.90
14670;DHT22;7423;48.722;9.350;2024-01-06T11:13:53;10.00;99.90
14670;DHT22;7423;48.722;9.350;2024-01-06T11:16:50;9.80;99.90
14670;DHT22;7423;48.722;9.350;2024-01-06T11:24:52;9.70;99.90
14670;DHT22;7423;48.722;9.350;2024-01-06T11:27:23;9.60;99.90
14670;DHT22;7423;48.722;9.350;2024-01-06T11:29:53;9.30;99.90
14670;DHT22;7423;48.722;9.350;2024-01-06T11:35:04;9.30;99.90
14670;DHT22;7423;48.722;9.350;2024-01-06T11:45:32;9.50;99.90
14670;DHT22;7423;48.722;9.350;2024-01-06T11:48:02;9.50;99.90
14670;DHT22;7423;48.722;9.350;2024-01-06T11:50:35;9.60;99.90
14670;DHT22;7423;48.722;9.350;2024-01-06T11:53:04;9.70;99.90
14670;DHT22;7423;48.722;9.350;2024-01-06T11:55:31;9.60;99.90
14670;DHT22;7423;48.722;9.350;2024-01-06T11:57:59;9.70;99.90
14670;DHT22;7423;48.722;9.350;2024-01-06T12:00:34;9.60;99.90
14670;DHT22;7423;48.722;9.350;2024-01-06T12:03:07;9.70;99.90
14670;DHT22;7423;48.722;9.350;2024-01-06T12:05:34;9.60;99.90
14670;DHT22;7423;48.722;9.350;2024-01-06T12:08:03;9.70;99.90
14670;DHT22;7423;48.722;9.350;2024-01-06T12:10:33;9.70;99.90
14670;DHT22;7423;48.722;9.350;2024-01-06T12:13:02;9.60;99.90
14670;DHT22;7423;48.722;9.350;2024-01-06T12:15:32;9.70;99.90
14670;DHT22;7423;48.722;9.350;2024-01-06T12:18:02;9.50;99.90
14670;DHT22;7423;48.722;9.350;2024-01-06T12:20:31;9.60;99.90
14670;DHT22;7423;48.722;9.350;2024-01-06T12:22:58;9.70;99.90
14670;DHT22;7423;48.722;9.350;2024-01-06T12:25:26;9.70;99.90
14670;DHT22;7423;48.722;9.350;2024-01-06T12:27:55;9.80;99.90
14670;DHT22;7423;48.722;9.350;2024-01-06T12:30:23;9.80;99.90
14670;DHT22;7423;48.722;9.350;2024-01-06T12:32:51;9.80;99.90
14670;DHT22;7423;48.722;9.350;2024-01-06T12:35:21;9.60;99.90
14670;DHT22;7423;48.722;9.350;2024-01-06T12:37:49;9.50;99.90
14670;DHT22;7423;48.722;9.350;2024-01-06T12:40:16;9.60;99.90
14670;DHT22;7423;48.722;9.350;2024-01-06T12:42:44;9.70;99.90
14670;DHT22;7423;48.722;9.350;2024-01-06T12:45:12;9.80;99.90
14670;DHT22;7423;48.722;9.350;2024-01-06T12:47:39;9.70;99.90
14670;DHT22;7423;48.722;9.350;2024-01-06T12:50:08;9.70;99.90
14670;DHT22;7423;48.722;9.350;2024-01-06T12:52:35;9.70;99.90
14670;DHT22;7423;48.722;9.350;2024-01-06T12:55:02;9.60;99.90
14670;DHT22;7423;48.722;9.350;2024-01-06T12:57:30;9.50;99.90
14670;DHT22;7423;48.722;9.350;2024-01-06T12:59:57;9.40;99.90
14670;DHT22;7423;48.722;9.350;2024-01-06T13:02:24;9.60;99.90
14670;DHT22;7423;48.722;9.350;2024-01-06T13:04:51;9.70;99.90
14670;DHT22;7423;48.722;9.350;2024-01-06T13:07:18;9.70;99.90
14670;DHT22;7423;48.722;9.350;2024-01-06T13:09:45;9.80;99.90
14670;DHT22;7423;48.722;9.350;2024-01-06T13:12:12;9.80;99.90
14670;DHT22;7423;48.722;9.350;2024-01-06T13:14:39;9.90;99.90
14670;DHT22;7423;48.722;9.350;2024-01-06T13:17:06;9.90;99.90
14670;DHT22;7423;48.722;9.350;2024-01-06T13:19:33;9.80;99.90
14670;DHT22;7423;48.722;9.350;2024-01-06T13:22:00;9.70;99.90
14670;DHT22;7423;48.722;9.350;2024-01-06T13:24:27;9.90;99.90
14670;DHT22;7423;48.722;9.350;2024-01-06T13:26:54;10.00;99.90
14670;DHT22;7423;48.722;9.350;2024-01-06T13:29:21;10.00;99.90
14670;DHT22;7423;48.722;9.350;2024-01-06T13:31:48;10.10;99.90
14670;DHT22;7423;48.722;9.350;2024-01-06T13:34:16;10.00;99.90
14670;DHT22;7423;48.722;9.350;2024-01-06T13:36:43;9.90;99.90
14670;DHT22;7423;48.722;9.350;2024-01-06T13:39:10;10.00;99.90
14670;DHT22;7423;48.722;9.350;2024-01-06T13:41:46;10.10;99.90
14670;DHT22;7423;48.722;9.350;2024-01-06T13:44:16;9.90;99.90
14670;DHT22;7423;48.722;9.350;2024-01-06T13:46:43;9.80;99.90
14670;DHT22;7423;48.722;9.350;2024-01-06T13:49:11;9.70;99.90
14670;DHT22;7423;48.722;9.350;2024-01-06T13:51:41;9.60;99.90
14670;DHT22;7423;48.722;9.350;2024-01-06T13:54:09;9.70;99.90
14670;DHT22;7423;48.722;9.350;2024-01-06T13:56:36;9.80;99.90
14670;DHT22;7423;48.722;9.350;2024-01-06T13:59:04;9.80;99.90
14670;DHT22;7423;48.722;9.350;2024-01-06T14:01:31;9.80;99.90
14670;DHT22;7423;48.722;9.350;2024-01-06T14:03:58;9.80;99.90
14670;DHT22;7423;48.722;9.350;2024-01-06T14:06:26;9.90;99.90
14670;DHT22;7423;48.722;9.350;2024-01-06T14:08:57;9.90;99.90
14670;DHT22;7423;48.722;9.350;2024-01-06T14:11:25;9.70;99.90
14670;DHT22;7423;48.722;9.350;2024-01-06T14:13:53;9.40;99.90
14670;DHT22;7423;48.722;9.350;2024-01-06T14:16:20;9.20;99.90
14670;DHT22;7423;48.722;9.350;2024-01-06T14:18:47;9.10;99.90
14670;DHT22;7423;48.722;9.350;2024-01-06T14:21:14;9.00;99.90
14670;DHT22;7423;48.722;9.350;2024-01-06T14:23:42;9.10;99.90
14670;DHT22;7423;48.722;9.350;2024-01-06T14:26:09;9.00;99.90
14670;DHT22;7423;48.722;9.350;2024-01-06T14:28:36;9.10;99.90
14670;DHT22;7423;48.722;9.350;2024-01-06T14:31:03;9.00;99.90
14670;DHT22;7423;48.722;9.350;2024-01-06T14:33:30;8.90;99.90
14670;DHT22;7423;48.722;9.350;2024-01-06T14:35:57;9.00;99.90
14670;DHT22;7423;48.722;9.350;2024-01-06T14:38:24;8.90;99.90
14670;DHT22;7423;48.722;9.350;2024-01-06T14:40:52;8.80;99.90
14670;DHT22;7423;48.722;9.350;2024-01-06T14:43:19;8.80;99.90
14670;DHT22;7423;48.722;9.350;2024-01-06T14:45:47;8.80;99.90
14670;DHT22;7423;48.722;9.350;2024-01-06T14:48:19;8.90;99.90
14670;DHT22;7423;48.722;9.350;2024-01-06T14:50:46;8.80;99.90
14670;DHT22;7423;48.722;9.350;2024-01-06T14:53:15;8.80;99.90
14670;DHT22;7423;48.722;9.350;2024-01-06T14:55:42;9.00;99.90
14670;DHT22;7423;48.722;9.350;2024-01-06T14:58:09;8.90;99.90
14670;DHT22;7423;48.722;9.350;2024-01-06T15:00:36;8.90;99.90
14670;DHT22;7423;48.722;9.350;2024-01-06T15:03:04;9.00;99.90
14670;DHT22;7423;48.722;9.350;2024-01-06T15:05:32;8.90;99.90
14670;DHT22;7423;48.722;9.350;2024-01-06T15:08:02;8.90;99.90
14670;DHT22;7423;48.722;9.350;2024-01-06T15:10:30;8.90;99.90
14670;DHT22;7423;48.722;9.350;2024-01-06T15:12:57;8.90;99.90
14670;DHT22;7423;48.722;9.350;2024-01-06T15:15:24;9.00;99.90
14670;DHT22;7423;48.722;9.350;2024-01-06T15:17:51;9.20;99.90
14670;DHT22;7423;48.722;9.350;2024-01-06T15:20:18;9.20;99.90
14670;DHT22;7423;48.722;9.350;2024-01-06T15:22:45;9.30;99.90
14670;DHT22;7423;48.722;9.350;2024-01-06T15:25:12;9.10;99.90
14670;DHT22;7423;48.722;9.350;2024-01-06T15:27:39;9.10;99.90
14670;DHT22;7423;48.722;9.350;2024-01-06T15:30:09;9.20;99.90
14670;DHT22;7423;48.722;9.350;2024-01-06T15:32:37;9.30;99.90
14670;DHT22;7423;48.722;9.350;2024-01-06T15:35:05;9.40;99.90
14670;DHT22;7423;48.722;9.350;2024-01-06T15:37:36;9.50;99.90
14670;DHT22;7423;48.722;9.350;2024-01-06T15:40:06;9.50;99.90
14670;DHT22;7423;48.722;9.350;2024-01-06T15:42:36;9.50;99.90
14670;DHT22;7423;48.722;9.350;2024-01-06T15:45:05;9.40;99.90
14670;DHT22;7423;48.722;9.350;2024-01-06T15:47:35;9.20;99.90
14670;DHT22;7423;48.722;9.350;2024-01-06T15:50:03;9.20;99.90
14670;DHT22;7423;48.722;9.350;2024-01-06T15:52:31;9.10;99.90
14670;DHT22;7423;48.722;9.350;2024-01-06T15:54:58;9.10;99.90
14670;DHT22;7423;48.722;9.350;2024-01-06T15:57:26;9.20;99.90
14670;DHT22;7423;48.722;9.350;2024-01-06T16:00:00;8.90;99.90
14670;DHT22;7423;48.722;9.350;2024-01-06T16:02:27;8.90;99.90
14670;DHT22;7423;48.722;9.350;2024-01-06T16:04:54;8.90;99.90
14670;DHT22;7423;48.722;9.350;2024-01-06T16:07:21;8.90;99.90
14670;DHT22;7423;48.722;9.350;2024-01-06T16:09:49;8.80;99.90
14670;DHT22;7423;48.722;9.350;2024-01-06T16:12:17;8.80;99.90
14670;DHT22;7423;48.722;9.350;2024-01-06T16:14:44;8.80;99.90
14670;DHT22;7423;48.722;9.350;2024-01-06T16:17:11;8.80;99.90
14670;DHT22;7423;48.722;9.350;2024-01-06T16:19:39;8.90;99.90
14670;DHT22;7423;48.722;9.350;2024-01-06T16:22:09;8.80;99.90